la Seu d'Urgell, Spain
Current Conditions -  °F | °C
As of 9:30 AM on Monday 24 Nov 2014 (Local Time) from LELL Reporting Station
Few Clouds Few Clouds  
Wind Chill: 63°   Ceiling: Unl
Heat Index: 63°   Visibility: 6mi
Dew Point: 55°   Wind: 5mph
Humidity: 77%   Direction: 10°N
Pressure: 30.06"   Gusts: NA
Location:  42.36°N, 1.46°E
Report Text: LELL 240830Z 01004KT 330V070 9999 FEW020 17/13 Q1018
Loading
Personal Weather Stations






























Interactive Weather Map New forecast layout! Learn more

10-Day Weather Forecast

Advertisements
Track Severe Weather on mobile